DUNK1: Neosho River Nr Dunlap, KS

                                SHEF ID:       DUNK1     NEOSHO R NR DUNLAP, KS
STATION TYPE:
Regulating: Stage = 26.00, Flow = 6358

PRECIP STAGE RIV-FLOW BAT-LOAD
in ft cfs volt
Ccp-Rev Ccp-Rev Ccp-Rev Ccp-Rev
(America/Chicago)
04/29 00:00 0.00 14.99 896 12.21
04/29 01:00 0.00 14.98 893 12.15
04/29 02:00 0.00 14.97 890 12.14
04/29 03:00 0.00 14.94 881 12.12
04/29 04:00 0.00 14.91 872 12.09
04/29 05:00 0.00 14.87 860 12.04
04/29 06:00 0.00 14.82 845 12.01
04/29 07:00 0.00 14.77 830 12.00
04/29 08:00 0.00 14.73 818 13.36
04/29 09:00 0.00 14.70 809 13.65
04/29 10:00 0.00 14.67 800 13.68
04/29 11:00 0.00 14.65 794 13.61
04/29 12:00 0.00 14.61 782 14.07
04/29 13:00 0.00 14.59 776 13.70
04/29 14:00 0.00 14.57 771 13.95
04/29 15:00 0.00 14.54 762 13.51
04/29 16:00 0.00 14.52 756 13.38
04/29 17:00 0.00 14.49 747 13.09
04/29 18:00 0.00 14.47 741 12.89
04/29 19:00 0.00 14.44 732 12.77
04/29 20:00 0.00 14.42 726 12.71
04/29 21:00 0.00 14.40 720 12.38
04/29 22:00 0.00 14.39 717 12.28
04/29 23:00 0.00 14.37 711 12.24
Data processed at Thu 30Apr2026 04:44 GMT

NOTICE: If you are parsing this page

Please convert to using our Data API. Starting early 2026 we will be migrating to: https://water.usace.army.mil with modern pages rendered in JavaScript. When this migration completes you will no longer be able to scrape this page! CWMSDataAPI (CDA)

Timeseries IDs (TSIDs)

TSIDs used from left to right in the data table
DUNL.Precip-Inc.Total.1Hour.1Hour.Ccp-Rev
DUNL.Stage.Inst.1Hour.0.Ccp-Rev
DUNL.Flow.Inst.1Hour.0.Ccp-Rev
DUNL.Volt-Battery Load.Inst.1Hour.0.Ccp-Rev

                            

All information presented herein is the property of the government of the United States of America and may be revised or deleted at any time without prior notice. Dissemination of this information without the expressed written consent of the Public Affairs Office, Tulsa District U.S. Army Corps of Engineers is strictly prohibited. These data are gathered electronically and, as presented, have NOT undergone any form of quality control. These data are NOT guaranteed to be valid or correct.